Airfield :







YOU CAN JOIN US ON...

 
LOGIN :

Register | Disclaimer

   EN    FR    IT 

 









Legend :    VFR   Marginal VFR   IFR   Intensive IFR   Very Intensive IFR
Visi :
Ceiling :
>= 8 km
>= 3000ft
5 to 8 km
1000 to 3000 ft
1500m to 5 km
500 to 1000 ft
800 to 1500m
200 to 500 ft
< 800m
< 200 ft
Symbols :   Thunderstorms  Fog  Heavy snow  Heavy precipitations  Wind > 20 kt






- Airport Elevation : 9 ft


KPVC - Provincetown Municipal

CURRENT METAR :
  • 170356Z AUTO 06011G17KT 10SM CLR 03/M06 A3048 RMK AO2 SLP320 T00281061

EXPIRED METARs :
  • 170256Z AUTO 06012KT 10SM CLR 02/M06 A3047 RMK AO2 SLP318 T00221061 58003 FZRANO
  • 170156Z AUTO 05011G17KT 10SM CLR 02/M06 A3048 RMK AO2 SLP322 T00221061 FZRANO

TAF N/A



MET'MAP, your aeronautical weather chart ! - Copyright ORBIFLY December 2007 - Disclaimer

ORBIFLY MET'MAP TEAM :

Programming & Development : Alexandra Zaïnal
Concept & Development : Baudouin d'Aumeries
Co-Development & Prog : Marc-Olivier Méhu
Technical & hardware support : Manuel Goepfert

Contact : metmap@orbifly.com




SOURCES & CREDITS :

   NOAA